Time;durP1;ratioP1;P1;durP2;ratioP2;P2;SDS_P1;SDS_P2;PMS_P1;PMS_P2;Temp;Humidity;BMP_temperature;BMP_pressure;BME280_temperature;BME280_humidity;BME280_pressure;Samples;Min_cycle;Max_cycle;Signal;HPM_P1;HPM_P2
2021/03/12 00:02:17;;;;;;;4.97;1.90;;;7.20;99.90;;;;;;4994086;28;20695;-68
2021/03/12 00:05:02;;;;;;;4.13;2.00;;;7.30;99.90;;;;;;5004628;28;21087;-68
2021/03/12 00:07:36;;;;;;;5.93;1.90;;;7.30;99.90;;;;;;5002709;28;20731;-67
2021/03/12 00:10:03;;;;;;;5.57;2.40;;;7.30;99.90;;;;;;5003560;28;20659;-67
2021/03/12 00:12:34;;;;;;;5.93;2.10;;;7.20;99.90;;;;;;5003082;28;20737;-68
2021/03/12 00:15:21;;;;;;;2.83;1.80;;;7.30;99.90;;;;;;5001967;28;20636;-67
2021/03/12 00:17:51;;;;;;;4.27;1.80;;;7.30;99.90;;;;;;4996070;28;20675;-68
2021/03/12 00:20:24;;;;;;;5.10;2.00;;;7.30;99.90;;;;;;5005903;28;21198;-67
2021/03/12 00:23:06;;;;;;;3.60;1.90;;;7.30;99.90;;;;;;4995298;28;20605;-66
2021/03/12 00:25:41;;;;;;;2.80;2.27;;;7.30;99.90;;;;;;5006363;28;20967;-66
2021/03/12 00:28:15;;;;;;;3.37;1.80;;;7.30;99.90;;;;;;5004601;28;20607;-70
2021/03/12 00:30:42;;;;;;;3.87;1.77;;;7.30;99.90;;;;;;4998022;28;21162;-68
2021/03/12 00:33:26;;;;;;;4.27;1.67;;;7.30;99.90;;;;;;4999287;28;20980;-66
2021/03/12 00:35:52;;;;;;;2.97;1.50;;;7.30;99.90;;;;;;5017380;28;20691;-68
2021/03/12 00:38:26;;;;;;;3.90;1.70;;;7.30;99.90;;;;;;5001764;28;20686;-69
2021/03/12 00:41:00;;;;;;;2.40;1.40;;;7.30;99.90;;;;;;5014108;28;20263;-66
2021/03/12 00:43:31;;;;;;;2.80;1.37;;;7.30;99.90;;;;;;4998157;28;20616;-65
2021/03/12 00:46:30;;;;;;;1.80;1.17;;;7.30;99.90;;;;;;5000879;28;21197;-67
2021/03/12 00:48:57;;;;;;;5.03;1.70;;;7.30;99.90;;;;;;4998938;28;20613;-67
2021/03/12 00:51:28;;;;;;;4.30;1.20;;;7.30;99.90;;;;;;5004634;28;20611;-68
2021/03/12 00:54:01;;;;;;;1.23;1.13;;;7.40;99.90;;;;;;4996679;28;20673;-68
2021/03/12 00:56:27;;;;;;;2.23;1.30;;;7.20;99.90;;;;;;5001135;28;20655;-68
2021/03/12 00:58:52;;;;;;;2.77;1.30;;;7.30;99.90;;;;;;5002538;28;20620;-65
2021/03/12 01:01:25;;;;;;;2.70;1.50;;;7.30;99.90;;;;;;5014344;28;20653;-68
2021/03/12 01:03:57;;;;;;;2.20;1.13;;;7.30;99.90;;;;;;5002728;28;20174;-67
2021/03/12 01:06:22;;;;;;;2.57;1.60;;;7.30;99.90;;;;;;5002188;28;20632;-68
2021/03/12 01:08:56;;;;;;;2.63;1.50;;;7.30;99.90;;;;;;4997150;28;20636;-65
2021/03/12 01:11:24;;;;;;;3.80;1.60;;;7.30;99.90;;;;;;4996843;28;20232;-68
2021/03/12 01:13:52;;;;;;;1.77;1.50;;;7.30;99.90;;;;;;5006776;28;20632;-67
2021/03/12 01:16:30;;;;;;;2.30;1.60;;;7.30;99.90;;;;;;5003489;28;20748;-68
2021/03/12 01:19:01;;;;;;;3.20;1.30;;;7.20;99.90;;;;;;4997312;28;20674;-67
2021/03/12 01:21:31;;;;;;;4.73;1.30;;;7.30;99.90;;;;;;4998946;28;21211;-67
2021/03/12 01:23:59;;;;;;;2.37;1.50;;;7.30;99.90;;;;;;4992611;28;20604;-67
2021/03/12 01:26:30;;;;;;;2.67;1.60;;;7.30;99.90;;;;;;5002565;28;20818;-67
2021/03/12 01:28:58;;;;;;;1.53;1.43;;;7.30;99.90;;;;;;4994876;28;20676;-68
2021/03/12 01:31:32;;;;;;;5.80;1.40;;;7.30;99.90;;;;;;4997699;28;22882;-67
2021/03/12 01:34:05;;;;;;;1.57;1.00;;;7.30;99.90;;;;;;4999598;28;21260;-67
2021/03/12 01:36:31;;;;;;;6.47;1.60;;;7.30;99.90;;;;;;5006337;28;20730;-68
2021/03/12 01:38:56;;;;;;;2.90;1.60;;;7.30;99.90;;;;;;5005007;28;21211;-66
2021/03/12 01:41:33;;;;;;;4.07;1.60;;;7.20;99.90;;;;;;4990042;28;20247;-67
2021/03/12 01:43:58;;;;;;;2.87;2.00;;;7.30;99.90;;;;;;5001812;28;20260;-67
2021/03/12 01:49:17;;;;;;;3.70;1.60;;;7.20;99.90;;;;;;4995775;28;20288;-68
2021/03/12 01:51:52;;;;;;;4.60;1.53;;;7.30;99.90;;;;;;4997155;28;21196;-68
2021/03/12 01:54:20;;;;;;;6.30;2.23;;;7.30;99.90;;;;;;4998827;28;20584;-67
2021/03/12 01:56:50;;;;;;;3.13;1.50;;;7.30;99.90;;;;;;4991852;28;20995;-66
2021/03/12 01:59:20;;;;;;;6.10;1.87;;;7.20;99.90;;;;;;4996061;28;20694;-67
2021/03/12 02:02:03;;;;;;;6.10;2.00;;;7.20;99.90;;;;;;4992432;28;21027;-65
2021/03/12 02:04:34;;;;;;;2.13;1.70;;;7.20;99.90;;;;;;4997908;28;20589;-65
2021/03/12 02:07:25;;;;;;;6.20;2.10;;;7.20;99.90;;;;;;4992523;28;20616;-66
2021/03/12 02:09:53;;;;;;;4.40;1.73;;;7.20;99.90;;;;;;4998536;28;20645;-70
2021/03/12 02:12:34;;;;;;;3.17;2.00;;;7.20;99.90;;;;;;4998089;28;20613;-67
2021/03/12 02:15:16;;;;;;;4.00;2.03;;;7.10;99.90;;;;;;4997665;28;20749;-66
2021/03/12 02:18:08;;;;;;;4.50;1.90;;;7.10;99.90;;;;;;5001881;28;20663;-67
2021/03/12 02:21:02;;;;;;;3.20;2.23;;;7.20;99.90;;;;;;5001059;28;20656;-68
2021/03/12 02:23:58;;;;;;;3.13;1.70;;;7.20;99.90;;;;;;4994889;28;20643;-67
2021/03/12 02:26:46;;;;;;;4.47;1.80;;;7.20;99.90;;;;;;4992197;28;20764;-67
2021/03/12 02:29:28;;;;;;;4.33;2.27;;;7.20;99.90;;;;;;5001056;28;20656;-68
2021/03/12 02:31:58;;;;;;;4.67;1.80;;;7.20;99.90;;;;;;4999500;28;20671;-67
2021/03/12 02:34:39;;;;;;;3.70;2.10;;;7.20;99.90;;;;;;4992268;28;21177;-68
2021/03/12 02:37:06;;;;;;;4.43;2.00;;;7.20;99.90;;;;;;4991789;28;20661;-67
2021/03/12 02:39:43;;;;;;;4.70;2.13;;;7.30;99.90;;;;;;4997031;28;20637;-65
2021/03/12 02:42:09;;;;;;;3.30;2.00;;;7.30;99.90;;;;;;5014204;28;20691;-70
2021/03/12 02:44:37;;;;;;;4.10;1.93;;;7.20;99.90;;;;;;5003116;28;20620;-67
2021/03/12 02:47:24;;;;;;;4.63;2.17;;;7.20;99.90;;;;;;5006837;28;21009;-68
2021/03/12 02:49:51;;;;;;;5.23;3.10;;;7.20;99.90;;;;;;5004908;28;20728;-68
2021/03/12 02:52:28;;;;;;;6.27;2.43;;;7.30;99.90;;;;;;5000496;28;20629;-68
2021/03/12 02:54:55;;;;;;;5.00;2.20;;;7.20;99.90;;;;;;5002951;28;20717;-66
2021/03/12 02:57:22;;;;;;;4.60;2.40;;;7.20;99.90;;;;;;4993775;28;21190;-68
2021/03/12 02:59:54;;;;;;;6.00;2.47;;;7.20;99.90;;;;;;5003885;28;20710;-68
2021/03/12 03:02:33;;;;;;;4.57;2.27;;;7.20;99.90;;;;;;4997358;28;20584;-68
2021/03/12 03:05:07;;;;;;;5.47;3.30;;;7.20;99.90;;;;;;5001067;28;20624;-68
2021/03/12 03:07:43;;;;;;;4.97;2.87;;;7.20;99.90;;;;;;5000314;28;20596;-67
2021/03/12 03:10:14;;;;;;;4.50;2.57;;;7.20;99.90;;;;;;5012914;28;20679;-67
2021/03/12 03:12:46;;;;;;;4.63;2.80;;;7.20;99.90;;;;;;5015486;28;20620;-67
2021/03/12 03:15:18;;;;;;;7.43;2.90;;;7.20;99.90;;;;;;4998684;28;20612;-67
2021/03/12 03:18:08;;;;;;;7.00;3.10;;;7.20;99.90;;;;;;4998467;28;20711;-67
2021/03/12 03:21:02;;;;;;;5.03;3.23;;;7.20;99.90;;;;;;4996662;28;20652;-68
2021/03/12 03:23:33;;;;;;;6.43;3.23;;;7.20;99.90;;;;;;5003048;28;21257;-67
2021/03/12 03:26:04;;;;;;;12.80;4.07;;;7.20;99.90;;;;;;4997769;28;20747;-66
2021/03/12 03:28:34;;;;;;;7.73;3.57;;;7.20;99.90;;;;;;5001279;28;21040;-67
2021/03/12 03:31:12;;;;;;;7.00;3.50;;;7.20;99.90;;;;;;5004554;28;20667;-68
2021/03/12 03:33:55;;;;;;;6.57;3.33;;;7.20;99.90;;;;;;5000996;28;20929;-66
2021/03/12 03:36:24;;;;;;;6.90;3.20;;;7.20;99.90;;;;;;4997383;28;20605;-68
2021/03/12 03:38:58;;;;;;;5.97;2.97;;;7.20;99.90;;;;;;4997312;28;20645;-67
2021/03/12 03:41:30;;;;;;;5.00;3.20;;;7.20;99.90;;;;;;4997796;28;20624;-69
2021/03/12 03:43:59;;;;;;;8.90;3.50;;;7.20;99.90;;;;;;5000519;28;20897;-67
2021/03/12 03:46:33;;;;;;;6.53;3.47;;;7.30;99.90;;;;;;5001478;28;20694;-68
2021/03/12 03:49:08;;;;;;;8.47;3.80;;;7.40;99.90;;;;;;4998746;28;20656;-65
2021/03/12 03:51:36;;;;;;;8.93;3.80;;;7.30;99.90;;;;;;4998892;28;20800;-68
2021/03/12 03:54:32;;;;;;;8.07;4.20;;;7.40;99.90;;;;;;4997243;28;20636;-68
2021/03/12 03:56:59;;;;;;;7.77;3.67;;;7.40;99.90;;;;;;5005556;28;20798;-68
2021/03/12 03:59:25;;;;;;;5.50;3.27;;;7.40;99.90;;;;;;5006108;28;20651;-68
2021/03/12 04:01:54;;;;;;;8.50;4.07;;;7.40;99.90;;;;;;5001424;28;20588;-68
2021/03/12 04:04:20;;;;;;;9.50;4.17;;;7.40;99.90;;;;;;5008521;28;20627;-67
2021/03/12 04:06:57;;;;;;;21.70;4.40;;;7.40;99.90;;;;;;4999392;28;20632;-69
2021/03/12 04:09:29;;;;;;;5.33;3.13;;;7.40;99.90;;;;;;5005764;28;21288;-68
2021/03/12 04:12:03;;;;;;;7.77;3.90;;;7.40;99.90;;;;;;5000747;28;20711;-67
2021/03/12 04:14:30;;;;;;;5.63;3.70;;;7.40;99.90;;;;;;4999120;28;21238;-68
2021/03/12 04:17:02;;;;;;;8.60;3.77;;;7.50;99.90;;;;;;4996229;28;21229;-68
2021/03/12 04:19:28;;;;;;;8.17;4.00;;;7.50;99.90;;;;;;4999659;28;20656;-67
2021/03/12 04:22:00;;;;;;;7.47;3.20;;;7.50;99.90;;;;;;5002171;28;20632;-67
2021/03/12 04:24:28;;;;;;;4.73;2.70;;;7.50;99.90;;;;;;4999563;28;20628;-66
2021/03/12 04:26:54;;;;;;;10.00;3.70;;;7.60;99.90;;;;;;5011276;28;21099;-66
2021/03/12 04:29:21;;;;;;;13.53;3.40;;;7.60;99.90;;;;;;5002970;28;21218;-68
2021/03/12 04:31:47;;;;;;;7.30;3.23;;;7.50;99.90;;;;;;5000220;28;20992;-67
2021/03/12 04:34:17;;;;;;;6.43;2.73;;;7.50;99.90;;;;;;5008971;28;20628;-67
2021/03/12 04:36:51;;;;;;;4.90;3.10;;;7.60;99.90;;;;;;5004453;28;20771;-67
2021/03/12 04:39:18;;;;;;;8.13;4.50;;;7.50;99.90;;;;;;5008552;28;20648;-68
2021/03/12 04:41:44;;;;;;;6.93;3.10;;;7.40;99.90;;;;;;5003275;28;20655;-66
2021/03/12 04:44:19;;;;;;;10.13;3.30;;;7.40;99.90;;;;;;4995513;28;20617;-67
2021/03/12 04:46:51;;;;;;;8.20;3.33;;;7.40;99.90;;;;;;5001703;28;21200;-68
2021/03/12 04:49:22;;;;;;;7.23;3.63;;;7.40;99.90;;;;;;5015410;28;21377;-69
2021/03/12 04:51:53;;;;;;;8.67;2.97;;;7.40;99.90;;;;;;4999825;28;20589;-67
2021/03/12 04:54:21;;;;;;;16.77;4.00;;;7.50;99.90;;;;;;4996202;28;20688;-65
2021/03/12 04:56:50;;;;;;;7.60;3.20;;;7.50;99.90;;;;;;5000480;28;21230;-67
2021/03/12 04:59:23;;;;;;;6.50;3.03;;;7.40;99.90;;;;;;5009450;23;20632;-65
2021/03/12 05:01:56;;;;;;;8.00;3.50;;;7.40;99.90;;;;;;4983476;28;20666;-66
2021/03/12 05:04:25;;;;;;;8.50;3.00;;;7.40;99.90;;;;;;4985673;28;20627;-63
2021/03/12 05:06:53;;;;;;;9.00;3.30;;;7.40;99.90;;;;;;4984706;28;20617;-65
2021/03/12 05:09:22;;;;;;;6.30;3.20;;;7.40;99.90;;;;;;4980567;28;20684;-65
2021/03/12 05:11:47;;;;;;;8.80;3.20;;;7.50;99.90;;;;;;4964341;28;20606;-63
2021/03/12 05:14:17;;;;;;;7.73;2.93;;;7.40;99.90;;;;;;4960003;28;20637;-63
2021/03/12 05:16:51;;;;;;;6.00;2.83;;;7.40;99.90;;;;;;4961011;28;20215;-62
2021/03/12 05:19:22;;;;;;;7.80;3.57;;;7.40;99.90;;;;;;4962836;28;21263;-63
2021/03/12 05:21:53;;;;;;;8.23;3.30;;;7.30;99.90;;;;;;4957425;28;21215;-65
2021/03/12 05:24:40;;;;;;;10.77;3.50;;;7.30;99.90;;;;;;4964173;28;20618;-63
2021/03/12 05:27:08;;;;;;;7.83;3.23;;;7.20;99.90;;;;;;4964531;28;20621;-66
2021/03/12 05:29:41;;;;;;;11.53;3.13;;;7.20;99.90;;;;;;4967890;28;20662;-66
2021/03/12 05:32:07;;;;;;;5.03;2.67;;;7.20;99.90;;;;;;4962434;28;20662;-65
2021/03/12 05:34:44;;;;;;;7.00;3.23;;;7.30;99.90;;;;;;4963014;28;20621;-65
2021/03/12 05:37:09;;;;;;;8.57;3.13;;;7.20;99.90;;;;;;4964310;28;20693;-66
2021/03/12 05:39:43;;;;;;;7.90;3.17;;;7.30;99.90;;;;;;4969535;28;20658;-64
2021/03/12 05:42:21;;;;;;;8.90;3.33;;;7.40;99.90;;;;;;4965995;28;20262;-64
2021/03/12 05:44:52;;;;;;;6.90;3.10;;;7.30;99.90;;;;;;4972506;28;20631;-64
2021/03/12 05:47:17;;;;;;;6.00;2.60;;;7.30;99.90;;;;;;4980412;28;20618;-64
2021/03/12 05:49:43;;;;;;;6.57;3.20;;;7.30;99.90;;;;;;4985714;28;20720;-63
2021/03/12 05:52:11;;;;;;;7.37;3.47;;;7.40;99.90;;;;;;4981571;28;20262;-64
2021/03/12 05:54:36;;;;;;;7.50;3.13;;;7.40;99.90;;;;;;4974185;28;20210;-63
2021/03/12 05:57:02;;;;;;;8.30;4.87;;;7.40;99.90;;;;;;4964575;28;20694;-64
2021/03/12 05:59:46;;;;;;;4.70;2.67;;;7.30;99.90;;;;;;4961901;28;20297;-63
2021/03/12 06:02:14;;;;;;;10.93;3.67;;;7.30;99.90;;;;;;4963633;28;20203;-64
2021/03/12 06:04:57;;;;;;;5.67;3.00;;;7.40;99.90;;;;;;4967824;28;20631;-63
2021/03/12 06:07:25;;;;;;;7.37;3.00;;;7.30;99.90;;;;;;4965828;28;20634;-63
2021/03/12 06:09:56;;;;;;;7.53;3.30;;;7.30;99.90;;;;;;4964010;28;20666;-64
2021/03/12 06:12:29;;;;;;;11.20;3.70;;;7.10;99.90;;;;;;4966566;28;21024;-64
2021/03/12 06:15:16;;;;;;;7.57;2.83;;;7.10;99.90;;;;;;4966776;28;20717;-65
2021/03/12 06:17:47;;;;;;;6.23;3.60;;;7.20;99.90;;;;;;4952868;28;21021;-65
2021/03/12 06:20:21;;;;;;;7.00;3.23;;;7.20;99.90;;;;;;4961544;28;20660;-66
2021/03/12 06:22:55;;;;;;;6.03;4.00;;;7.30;99.90;;;;;;4966650;28;21045;-64
2021/03/12 06:25:35;;;;;;;7.07;3.43;;;7.30;99.90;;;;;;4965781;28;20614;-64
2021/03/12 06:28:17;;;;;;;9.97;3.80;;;7.20;99.90;;;;;;4960428;28;20745;-64
2021/03/12 06:30:46;;;;;;;6.10;3.10;;;7.20;99.90;;;;;;4959827;28;20650;-64
2021/03/12 06:33:25;;;;;;;8.07;2.97;;;7.20;99.90;;;;;;4961524;28;20654;-64
2021/03/12 06:35:53;;;;;;;6.83;3.53;;;7.20;99.90;;;;;;4961965;28;20620;-64
2021/03/12 06:38:19;;;;;;;6.70;3.23;;;7.10;99.90;;;;;;4963503;28;21200;-64
2021/03/12 06:40:48;;;;;;;10.83;3.73;;;7.20;99.90;;;;;;4960642;28;20646;-65
2021/03/12 06:43:27;;;;;;;6.20;3.03;;;7.20;99.90;;;;;;4962026;28;20198;-64
2021/03/12 06:46:01;;;;;;;5.60;2.97;;;7.20;99.90;;;;;;4961559;28;20654;-66
2021/03/12 06:48:37;;;;;;;5.60;3.43;;;7.20;99.90;;;;;;4957099;28;21429;-67
2021/03/12 06:51:11;;;;;;;5.60;3.27;;;7.20;99.90;;;;;;4961321;28;20665;-66
2021/03/12 06:53:40;;;;;;;5.13;3.20;;;7.20;99.90;;;;;;4956011;28;20628;-68
2021/03/12 06:56:12;;;;;;;8.13;3.57;;;7.20;99.90;;;;;;4952185;28;20626;-67
2021/03/12 06:58:58;;;;;;;4.47;3.07;;;7.20;99.90;;;;;;4947840;28;21136;-67
2021/03/12 07:01:24;;;;;;;7.90;3.33;;;7.20;99.90;;;;;;4954371;28;20707;-67
2021/03/12 07:04:08;;;;;;;5.57;2.87;;;7.30;99.90;;;;;;4956003;28;20630;-68
2021/03/12 07:06:48;;;;;;;10.67;4.10;;;7.40;99.90;;;;;;4948716;28;20289;-66
2021/03/12 07:09:14;;;;;;;9.23;3.67;;;7.60;99.90;;;;;;4964966;28;20657;-66
2021/03/12 07:11:42;;;;;;;7.90;3.33;;;7.50;99.90;;;;;;4964401;28;20622;-66
2021/03/12 07:14:08;;;;;;;10.40;3.27;;;7.50;99.90;;;;;;4966149;28;20695;-66
2021/03/12 07:16:34;;;;;;;8.33;3.60;;;7.50;99.90;;;;;;4961133;28;21086;-66
2021/03/12 07:19:00;;;;;;;7.57;3.30;;;7.50;99.90;;;;;;4959615;28;20685;-66
2021/03/12 07:21:27;;;;;;;6.13;3.00;;;7.40;99.90;;;;;;4960040;28;20733;-66
2021/03/12 07:23:58;;;;;;;11.17;2.90;;;7.40;99.90;;;;;;4957586;28;20226;-66
2021/03/12 07:26:24;;;;;;;6.10;3.63;;;7.40;99.90;;;;;;4964171;28;20713;-67
2021/03/12 07:28:56;;;;;;;7.60;3.23;;;7.40;99.90;;;;;;4965329;28;20613;-65
2021/03/12 07:31:27;;;;;;;5.30;2.83;;;7.40;99.90;;;;;;4961929;28;20587;-67
2021/03/12 07:33:53;;;;;;;7.00;2.83;;;7.30;99.90;;;;;;4962391;28;20613;-66
2021/03/12 07:36:22;;;;;;;4.83;3.10;;;7.30;99.90;;;;;;4960101;28;20626;-66
2021/03/12 07:38:50;;;;;;;7.13;3.00;;;7.40;99.90;;;;;;4963131;28;20684;-67
2021/03/12 07:41:16;;;;;;;10.73;3.57;;;7.30;99.90;;;;;;4960943;28;20650;-62
2021/03/12 07:43:43;;;;;;;7.63;2.90;;;7.40;99.90;;;;;;4978339;28;20632;-63
2021/03/12 07:46:12;;;;;;;5.10;2.97;;;7.60;99.90;;;;;;4966111;28;20213;-64
2021/03/12 07:48:37;;;;;;;6.23;2.23;;;7.70;99.90;;;;;;4957433;28;21155;-64
2021/03/12 07:51:11;;;;;;;7.53;2.73;;;7.70;99.90;;;;;;4963187;28;21020;-65
2021/03/12 07:53:47;;;;;;;5.67;2.60;;;7.70;99.90;;;;;;4958800;28;20185;-65
2021/03/12 07:56:15;;;;;;;7.03;2.80;;;7.70;99.90;;;;;;4962213;28;20672;-64
2021/03/12 07:58:55;;;;;;;7.87;3.10;;;7.70;99.90;;;;;;4964425;28;20618;-65
2021/03/12 08:01:22;;;;;;;8.13;2.53;;;7.70;99.90;;;;;;4957886;28;20732;-64
2021/03/12 08:03:50;;;;;;;4.10;2.17;;;7.70;99.90;;;;;;4963805;28;22042;-69
2021/03/12 08:06:19;;;;;;;5.53;2.80;;;7.70;99.90;;;;;;4959387;28;20637;-65
2021/03/12 08:08:48;;;;;;;6.43;2.70;;;7.70;99.90;;;;;;4963791;28;20637;-66
2021/03/12 08:11:25;;;;;;;4.53;2.30;;;7.70;99.90;;;;;;4974998;28;20665;-66
2021/03/12 08:13:51;;;;;;;10.90;2.33;;;7.80;99.90;;;;;;4962115;28;20721;-66
2021/03/12 08:16:18;;;;;;;4.93;2.30;;;7.80;99.90;;;;;;4964062;28;20699;-67
2021/03/12 08:18:45;;;;;;;10.03;2.90;;;7.80;99.90;;;;;;4965817;28;20618;-66
2021/03/12 08:21:32;;;;;;;8.93;2.70;;;7.80;99.90;;;;;;4976775;28;20653;-66
2021/03/12 08:23:59;;;;;;;6.50;2.33;;;7.80;99.90;;;;;;4962636;28;20586;-66
2021/03/12 08:26:55;;;;;;;5.00;2.17;;;7.80;99.90;;;;;;4961940;28;21081;-66
2021/03/12 08:29:43;;;;;;;4.93;2.60;;;7.90;99.90;;;;;;4960676;28;20684;-65
2021/03/12 08:32:38;;;;;;;4.70;2.70;;;7.90;99.90;;;;;;4958932;28;21909;-66
2021/03/12 08:35:05;;;;;;;4.40;2.20;;;7.80;99.90;;;;;;4958994;28;20626;-66
2021/03/12 08:37:31;;;;;;;4.50;2.57;;;8.00;99.90;;;;;;4957862;28;20661;-65
2021/03/12 08:40:15;;;;;;;4.93;2.20;;;8.00;99.90;;;;;;4950046;28;21053;-65
2021/03/12 08:43:03;;;;;;;4.93;2.27;;;8.00;99.90;;;;;;4960102;28;20183;-65
2021/03/12 08:45:35;;;;;;;5.17;2.40;;;8.10;99.90;;;;;;4955970;28;20648;-65
2021/03/12 08:48:07;;;;;;;8.73;2.87;;;8.10;99.90;;;;;;4966219;28;20614;-66
2021/03/12 08:50:35;;;;;;;6.20;2.67;;;8.10;99.90;;;;;;4958488;28;21121;-65
2021/03/12 08:53:05;;;;;;;6.53;2.30;;;8.00;99.90;;;;;;4965050;28;20638;-65
2021/03/12 08:55:31;;;;;;;4.70;2.40;;;8.10;99.90;;;;;;4963621;28;21161;-66
2021/03/12 08:58:18;;;;;;;7.80;2.60;;;8.20;99.90;;;;;;4978529;28;20689;-67
2021/03/12 09:00:47;;;;;;;3.90;2.80;;;8.20;99.90;;;;;;4982597;28;20646;-72
2021/03/12 09:03:21;;;;;;;6.03;2.40;;;8.20;99.90;;;;;;4982640;28;20661;-70
2021/03/12 09:05:49;;;;;;;5.20;2.30;;;8.30;99.90;;;;;;4984056;28;20974;-70
2021/03/12 09:08:21;;;;;;;7.47;2.77;;;8.40;99.90;;;;;;4963033;28;21001;-70
2021/03/12 09:10:47;;;;;;;5.53;2.50;;;8.50;99.90;;;;;;4966963;28;20647;-71
2021/03/12 09:13:15;;;;;;;3.40;2.40;;;8.50;99.90;;;;;;4960632;28;20625;-66
2021/03/12 09:15:44;;;;;;;5.27;2.93;;;8.50;99.90;;;;;;4972290;28;20210;-66
2021/03/12 09:18:13;;;;;;;6.10;3.00;;;8.60;99.90;;;;;;4958462;28;20694;-66
2021/03/12 09:20:40;;;;;;;4.60;2.37;;;8.70;99.90;;;;;;4962927;28;20661;-65
2021/03/12 09:23:09;;;;;;;5.30;2.30;;;8.70;99.90;;;;;;4962692;28;20631;-66
2021/03/12 09:25:35;;;;;;;10.67;2.80;;;8.70;99.90;;;;;;4965110;28;20617;-65
2021/03/12 09:28:09;;;;;;;3.53;2.30;;;8.70;99.90;;;;;;4953099;28;20610;-65
2021/03/12 09:30:41;;;;;;;4.53;2.10;;;8.80;99.90;;;;;;4957989;28;20637;-65
2021/03/12 09:33:09;;;;;;;8.67;2.53;;;8.80;99.90;;;;;;4959742;28;20590;-66
2021/03/12 09:35:41;;;;;;;5.30;2.57;;;8.70;99.90;;;;;;4964725;28;20734;-67
2021/03/12 09:38:08;;;;;;;4.23;2.40;;;8.60;99.90;;;;;;4958934;28;20701;-67
2021/03/12 09:40:42;;;;;;;3.73;2.37;;;8.60;99.90;;;;;;4957861;28;20759;-66
2021/03/12 09:43:10;;;;;;;4.70;2.10;;;8.70;99.90;;;;;;4953740;28;20619;-65
2021/03/12 09:45:36;;;;;;;6.43;2.60;;;8.70;99.90;;;;;;4954192;28;20611;-65
2021/03/12 09:48:04;;;;;;;5.20;2.60;;;8.70;99.90;;;;;;4951698;28;20633;-66
2021/03/12 09:50:34;;;;;;;9.97;2.50;;;8.70;99.90;;;;;;4957281;28;21120;-66
2021/03/12 09:53:06;;;;;;;5.50;2.40;;;8.70;99.90;;;;;;4957212;28;20606;-66
2021/03/12 09:55:35;;;;;;;3.60;2.10;;;8.70;99.90;;;;;;4957765;28;21145;-66
2021/03/12 09:58:10;;;;;;;5.00;2.30;;;8.80;99.90;;;;;;4954286;28;20682;-65
2021/03/12 10:00:36;;;;;;;7.30;2.40;;;8.90;99.90;;;;;;4959345;28;20637;-66
2021/03/12 10:03:04;;;;;;;5.50;2.27;;;9.00;99.90;;;;;;4953501;28;20630;-66
2021/03/12 10:05:30;;;;;;;4.87;2.47;;;8.90;99.90;;;;;;4951524;28;20713;-67
2021/03/12 10:08:03;;;;;;;7.63;2.70;;;8.90;99.90;;;;;;4957880;28;20618;-66
2021/03/12 10:10:30;;;;;;;5.27;2.00;;;8.90;99.90;;;;;;4959526;28;20641;-66
2021/03/12 10:12:58;;;;;;;5.47;2.70;;;9.00;99.90;;;;;;4959306;28;20622;-66
2021/03/12 10:15:28;;;;;;;6.83;2.73;;;9.00;99.90;;;;;;4964137;28;20617;-65
2021/03/12 10:17:54;;;;;;;8.67;3.00;;;8.90;99.90;;;;;;4940972;28;20681;-65
2021/03/12 10:20:31;;;;;;;8.10;3.10;;;9.00;99.90;;;;;;4961499;28;20650;-65
2021/03/12 10:23:09;;;;;;;5.93;3.30;;;9.00;99.90;;;;;;4954939;28;20754;-66
2021/03/12 10:25:42;;;;;;;6.10;3.17;;;9.00;99.90;;;;;;4975737;28;20914;-66
2021/03/12 10:28:11;;;;;;;3.80;2.73;;;9.10;99.90;;;;;;4968102;28;20636;-66
2021/03/12 10:30:40;;;;;;;4.90;3.07;;;9.20;99.90;;;;;;4987293;28;20654;-66
2021/03/12 10:33:29;;;;;;;7.23;3.40;;;9.10;99.90;;;;;;4971606;28;21054;-65
2021/03/12 10:36:04;;;;;;;8.80;3.50;;;9.20;99.90;;;;;;4959244;28;20677;-66
2021/03/12 10:38:33;;;;;;;5.83;3.30;;;9.20;99.90;;;;;;4968959;28;20642;-66
2021/03/12 10:41:22;;;;;;;6.57;3.47;;;9.20;99.90;;;;;;4961459;28;20661;-66
2021/03/12 10:44:04;;;;;;;3.67;3.20;;;9.20;99.90;;;;;;4977967;28;20649;-66
2021/03/12 10:46:33;;;;;;;8.23;3.40;;;9.20;99.90;;;;;;4961187;28;20727;-66
2021/03/12 10:49:01;;;;;;;7.30;3.63;;;9.20;99.90;;;;;;4975673;28;20645;-66
2021/03/12 10:51:39;;;;;;;8.80;3.60;;;9.30;99.90;;;;;;4962712;28;20620;-69
2021/03/12 10:54:05;;;;;;;8.23;4.20;;;9.20;99.90;;;;;;4968003;28;21196;-66
2021/03/12 10:56:30;;;;;;;3.57;3.00;;;9.20;99.90;;;;;;4967323;28;20618;-66
2021/03/12 10:59:06;;;;;;;5.60;2.97;;;9.30;99.90;;;;;;4963175;28;20198;-66
2021/03/12 11:01:38;;;;;;;6.23;3.40;;;9.40;99.90;;;;;;4984369;23;20300;-68
2021/03/12 11:04:12;;;;;;;10.40;3.77;;;9.30;99.90;;;;;;4961282;28;20944;-68
2021/03/12 11:06:39;;;;;;;13.20;4.30;;;9.40;99.90;;;;;;4965204;28;20590;-69
2021/03/12 11:09:06;;;;;;;12.03;3.47;;;9.40;99.90;;;;;;4963105;28;20613;-68
2021/03/12 11:11:32;;;;;;;7.23;3.50;;;9.50;99.90;;;;;;4959706;28;20685;-68
2021/03/12 11:13:58;;;;;;;5.67;3.13;;;9.60;99.90;;;;;;4953173;28;22714;-69
2021/03/12 11:16:23;;;;;;;5.20;2.90;;;9.60;99.90;;;;;;4952596;28;20190;-70
2021/03/12 11:18:49;;;;;;;4.37;3.17;;;9.60;99.90;;;;;;4958601;28;20270;-69
2021/03/12 11:21:15;;;;;;;8.63;3.40;;;9.60;99.90;;;;;;4957975;28;20215;-68
2021/03/12 11:23:45;;;;;;;7.70;3.40;;;9.70;99.90;;;;;;4965171;28;20186;-68
2021/03/12 11:26:11;;;;;;;4.83;3.33;;;9.70;99.90;;;;;;4956919;28;20672;-69
2021/03/12 11:28:38;;;;;;;5.03;3.57;;;9.70;99.90;;;;;;4961565;28;20932;-68
2021/03/12 11:31:04;;;;;;;5.47;3.27;;;9.70;99.90;;;;;;4956996;28;20693;-69
2021/03/12 11:33:30;;;;;;;6.47;3.43;;;9.70;99.90;;;;;;4961598;28;20654;-71
2021/03/12 11:35:57;;;;;;;7.33;4.70;;;9.70;99.90;;;;;;4958158;28;20710;-69
2021/03/12 11:38:22;;;;;;;10.23;4.57;;;9.60;99.90;;;;;;4948518;28;20662;-69
2021/03/12 11:40:48;;;;;;;7.13;3.50;;;9.70;99.90;;;;;;4957358;28;20773;-68
2021/03/12 11:43:14;;;;;;;3.57;3.20;;;9.60;99.90;;;;;;4953198;28;20209;-67
2021/03/12 11:45:39;;;;;;;6.23;3.50;;;9.60;99.90;;;;;;4966464;28;20183;-68
2021/03/12 11:48:06;;;;;;;7.40;3.53;;;9.80;99.90;;;;;;4950429;28;20218;-68
2021/03/12 11:50:35;;;;;;;7.43;3.60;;;10.00;99.90;;;;;;4966844;28;20309;-70
2021/03/12 11:53:01;;;;;;;5.77;3.40;;;10.20;99.90;;;;;;4970637;28;20637;-70
2021/03/12 11:55:27;;;;;;;3.60;2.70;;;10.50;99.90;;;;;;4958475;28;20638;-69
2021/03/12 11:57:54;;;;;;;8.63;3.93;;;10.80;99.90;;;;;;4956100;28;20658;-68
2021/03/12 12:00:20;;;;;;;5.57;3.07;;;11.00;99.90;;;;;;4956095;28;20528;-68
2021/03/12 12:02:46;;;;;;;5.40;3.00;;;11.10;99.90;;;;;;4972949;28;20684;-69
2021/03/12 12:05:12;;;;;;;6.30;3.13;;;11.20;99.90;;;;;;4962785;28;20201;-69
2021/03/12 12:07:38;;;;;;;6.97;3.23;;;11.20;99.90;;;;;;4962273;28;20207;-69
2021/03/12 12:10:05;;;;;;;4.97;2.93;;;11.20;99.90;;;;;;4962007;28;20658;-69
2021/03/12 12:12:31;;;;;;;5.00;2.87;;;11.10;99.90;;;;;;4963986;28;20195;-69
2021/03/12 12:14:57;;;;;;;6.63;3.23;;;11.00;99.90;;;;;;4960588;28;20621;-69
2021/03/12 12:17:23;;;;;;;3.67;2.57;;;10.80;99.90;;;;;;4957379;28;20289;-69
2021/03/12 12:19:49;;;;;;;5.93;3.20;;;10.70;99.90;;;;;;4964989;28;20666;-69
2021/03/12 12:22:16;;;;;;;3.97;2.57;;;10.60;99.90;;;;;;4955655;28;20628;-69
2021/03/12 12:24:41;;;;;;;5.90;3.30;;;10.50;99.90;;;;;;4960824;28;20191;-69
2021/03/12 12:27:12;;;;;;;5.53;3.03;;;10.50;99.90;;;;;;4957825;28;20633;-69
2021/03/12 12:29:38;;;;;;;4.80;3.40;;;10.40;99.90;;;;;;4967348;28;20289;-69
2021/03/12 12:32:04;;;;;;;7.10;3.10;;;10.30;99.90;;;;;;4962205;28;20707;-69
2021/03/12 12:34:30;;;;;;;6.80;3.17;;;10.30;99.90;;;;;;4957805;28;20625;-69
2021/03/12 12:36:55;;;;;;;4.03;2.47;;;10.40;99.90;;;;;;4964405;28;20708;-69
2021/03/12 12:39:22;;;;;;;5.73;3.27;;;10.30;99.90;;;;;;4962629;28;20190;-69
2021/03/12 12:41:51;;;;;;;5.73;2.93;;;10.40;99.90;;;;;;4955264;28;20246;-72
2021/03/12 12:44:17;;;;;;;3.83;2.60;;;10.40;99.90;;;;;;4963636;28;20721;-71
2021/03/12 12:46:43;;;;;;;4.63;3.30;;;10.40;99.90;;;;;;4957709;28;20618;-70
2021/03/12 12:49:10;;;;;;;3.60;2.07;;;10.40;99.90;;;;;;4955819;28;20630;-71
2021/03/12 12:51:36;;;;;;;6.47;3.00;;;10.40;99.90;;;;;;4963834;28;20649;-72
2021/03/12 12:54:02;;;;;;;8.07;2.90;;;10.50;99.90;;;;;;4962194;28;20737;-72
2021/03/12 12:56:28;;;;;;;5.77;2.70;;;10.40;99.90;;;;;;4963728;28;20836;-71
2021/03/12 12:58:54;;;;;;;4.63;2.83;;;10.40;99.90;;;;;;4959389;28;20753;-71
2021/03/12 13:01:19;;;;;;;5.10;2.73;;;10.30;99.90;;;;;;4973955;28;20549;-70
2021/03/12 13:03:45;;;;;;;5.20;2.80;;;10.30;99.90;;;;;;4967956;28;20293;-70
2021/03/12 13:06:10;;;;;;;4.80;2.97;;;10.20;99.90;;;;;;4974427;28;20227;-70
2021/03/12 13:08:36;;;;;;;7.63;2.97;;;10.30;99.90;;;;;;4967067;28;20269;-70
2021/03/12 13:11:03;;;;;;;6.97;3.53;;;10.10;99.90;;;;;;4961012;28;20207;-71
2021/03/12 13:13:30;;;;;;;4.70;2.80;;;10.10;99.90;;;;;;4958264;28;20654;-70
2021/03/12 13:15:57;;;;;;;6.00;2.57;;;10.20;99.90;;;;;;4970464;28;20636;-70
2021/03/12 13:18:24;;;;;;;4.57;2.90;;;10.20;99.90;;;;;;4976778;28;20773;-70
2021/03/12 13:20:54;;;;;;;5.80;3.03;;;10.30;99.90;;;;;;4958296;28;20658;-73